Time;durP1;ratioP1;P1;durP2;ratioP2;P2;SDS_P1;SDS_P2;PMS_P1;PMS_P2;Temp;Humidity;BMP_temperature;BMP_pressure;BME280_temperature;BME280_humidity;BME280_pressure;Samples;Min_cycle;Max_cycle;Signal;HPM_P1;HPM_P2
2024/01/04 00:02:30;;;;;;;7.25;3.30;;;;;;;8.45;100.00;98884.16;5606719;31;34021;-73
2024/01/04 00:05:34;;;;;;;7.37;3.30;;;;;;;8.43;100.00;98886.16;5607592;31;34461;-73
2024/01/04 00:08:37;;;;;;;8.63;3.15;;;;;;;8.41;100.00;98896.94;5608812;31;34095;-73
2024/01/04 00:11:42;;;;;;;7.90;3.08;;;;;;;8.55;100.00;98900.50;5609671;31;34636;-73
2024/01/04 00:14:45;;;;;;;8.27;3.25;;;;;;;8.61;100.00;98897.09;5609714;31;34074;-73
2024/01/04 00:17:48;;;;;;;9.10;3.60;;;;;;;8.58;100.00;98894.81;5609404;31;34162;-73
2024/01/04 00:20:51;;;;;;;9.40;3.95;;;;;;;8.52;100.00;98890.31;5609688;31;34140;-73
2024/01/04 00:23:54;;;;;;;8.65;3.83;;;;;;;8.50;100.00;98889.69;5609567;31;34808;-73
2024/01/04 00:26:57;;;;;;;12.37;4.93;;;;;;;8.36;100.00;98888.75;5609479;31;34826;-73
2024/01/04 00:30:00;;;;;;;10.05;4.75;;;;;;;8.31;100.00;98891.16;5609899;31;34045;-73
2024/01/04 00:33:04;;;;;;;5.95;4.30;;;;;;;8.16;100.00;98895.63;5608753;31;34031;-73
2024/01/04 00:36:09;;;;;;;9.95;4.90;;;;;;;8.03;100.00;98906.91;5609347;31;34296;-73
2024/01/04 00:39:13;;;;;;;9.65;4.80;;;;;;;7.97;100.00;98899.72;5609767;31;34206;-73
2024/01/04 00:42:16;;;;;;;10.27;5.07;;;;;;;7.90;100.00;98882.97;5609403;31;34045;-73
2024/01/04 00:45:19;;;;;;;11.05;4.90;;;;;;;7.90;100.00;98890.91;5609310;31;34809;-73
2024/01/04 00:48:22;;;;;;;9.57;4.82;;;;;;;8.04;100.00;98892.66;5608569;31;34133;-73
2024/01/04 00:51:27;;;;;;;9.20;5.00;;;;;;;7.97;100.00;98880.41;5609536;31;34153;-73
2024/01/04 00:54:30;;;;;;;9.68;5.00;;;;;;;7.88;100.00;98890.28;5609246;31;34160;-73
2024/01/04 00:57:33;;;;;;;10.52;5.10;;;;;;;7.75;100.00;98888.28;5609123;31;34127;-72
2024/01/04 01:00:37;;;;;;;11.88;5.40;;;;;;;7.70;100.00;98895.13;5609055;31;34094;-74
2024/01/04 01:03:40;;;;;;;11.55;4.70;;;;;;;7.59;100.00;98885.06;5608987;31;34091;-72
2024/01/04 01:06:43;;;;;;;9.40;4.65;;;;;;;7.60;100.00;98873.53;5608848;31;35001;-72
2024/01/04 01:09:46;;;;;;;8.88;4.95;;;;;;;7.74;100.00;98870.84;5609201;31;34692;-73
2024/01/04 01:12:49;;;;;;;7.43;4.70;;;;;;;7.75;100.00;98879.56;5609220;31;34763;-74
2024/01/04 01:15:52;;;;;;;8.38;4.78;;;;;;;7.64;100.00;98875.59;5608749;31;34291;-73
2024/01/04 01:18:55;;;;;;;11.00;4.45;;;;;;;7.59;100.00;98877.16;5608383;31;34128;-74
2024/01/04 01:21:58;;;;;;;8.75;4.90;;;;;;;7.51;100.00;98858.75;5608950;31;34337;-73
2024/01/04 01:25:01;;;;;;;9.68;5.25;;;;;;;7.47;100.00;98847.78;5609106;31;34733;-73
2024/01/04 01:28:04;;;;;;;11.07;5.15;;;;;;;7.52;100.00;98837.47;5608993;31;34777;-73
2024/01/04 01:31:07;;;;;;;10.57;5.43;;;;;;;7.54;100.00;98838.12;5609318;31;34723;-73
2024/01/04 01:34:10;;;;;;;11.73;5.20;;;;;;;7.53;100.00;98848.84;5609204;31;34131;-74
2024/01/04 01:37:15;;;;;;;12.10;5.20;;;;;;;7.47;100.00;98834.59;5608161;31;34246;-72
2024/01/04 01:40:17;;;;;;;9.55;5.03;;;;;;;7.38;100.00;98836.50;5608823;31;34675;-73
2024/01/04 01:43:21;;;;;;;9.15;5.10;;;;;;;7.30;100.00;98844.53;5609230;31;33989;-74
2024/01/04 01:46:24;;;;;;;13.05;5.20;;;;;;;7.19;100.00;98844.19;5607948;31;34002;-73
2024/01/04 01:49:27;;;;;;;10.90;4.93;;;;;;;7.09;100.00;98855.00;5608350;31;34871;-73
2024/01/04 01:52:30;;;;;;;11.25;4.57;;;;;;;7.08;100.00;98871.81;5608624;31;34013;-72
2024/01/04 01:55:34;;;;;;;10.32;4.37;;;;;;;7.12;100.00;98872.28;5608639;31;34039;-73
2024/01/04 01:58:37;;;;;;;10.15;4.28;;;;;;;7.24;100.00;98871.66;5608619;31;33938;-73
2024/01/04 02:01:40;;;;;;;9.10;4.55;;;;;;;7.23;100.00;98872.66;5608719;31;34765;-73
2024/01/04 02:04:43;;;;;;;11.55;4.55;;;;;;;7.28;100.00;98882.63;5608614;31;34169;-72
2024/01/04 02:07:46;;;;;;;10.90;4.25;;;;;;;7.31;100.00;98898.91;5607953;31;34945;-73
2024/01/04 02:10:49;;;;;;;10.52;4.50;;;;;;;7.24;100.00;98887.47;5608981;31;34144;-74
2024/01/04 02:13:52;;;;;;;9.05;4.53;;;;;;;7.18;100.00;98896.09;5608621;31;34730;-72
2024/01/04 02:16:56;;;;;;;11.52;4.70;;;;;;;7.09;100.00;98878.75;5608541;31;34129;-73
2024/01/04 02:19:59;;;;;;;11.80;4.32;;;;;;;7.10;100.00;98867.19;5608551;31;34989;-75
2024/01/04 02:23:02;;;;;;;11.65;4.43;;;;;;;7.15;100.00;98871.94;5608605;31;34618;-73
2024/01/04 02:26:06;;;;;;;8.88;4.15;;;;;;;7.14;100.00;98865.00;5608193;31;34021;-73
2024/01/04 02:29:10;;;;;;;9.52;4.30;;;;;;;7.30;100.00;98857.72;5608496;31;33987;-72
2024/01/04 02:32:12;;;;;;;9.30;4.45;;;;;;;7.28;100.00;98854.44;5608628;31;34256;-73
2024/01/04 02:35:15;;;;;;;12.10;4.60;;;;;;;7.25;100.00;98860.09;5608336;31;34172;-72
2024/01/04 02:38:18;;;;;;;8.10;4.55;;;;;;;7.14;100.00;98850.00;5607093;31;34355;-73
2024/01/04 02:41:21;;;;;;;10.55;4.80;;;;;;;7.24;100.00;98847.91;5608340;31;34801;-73
2024/01/04 02:44:24;;;;;;;10.18;4.68;;;;;;;7.21;100.00;98850.91;5608152;31;34433;-72
2024/01/04 02:47:30;;;;;;;9.75;4.82;;;;;;;7.03;100.00;98868.09;5607888;31;34028;-72
2024/01/04 02:50:33;;;;;;;9.13;4.30;;;;;;;6.86;100.00;98886.75;5608041;31;33989;-73
2024/01/04 02:53:38;;;;;;;9.05;4.43;;;;;;;6.69;100.00;98892.31;5607865;31;34598;-73
2024/01/04 02:56:41;;;;;;;10.98;5.03;;;;;;;6.70;100.00;98892.16;5607843;31;34725;-73
2024/01/04 02:59:44;;;;;;;10.40;4.93;;;;;;;6.59;100.00;98889.94;5607969;31;32664;-73
2024/01/04 03:02:47;;;;;;;12.77;5.20;;;;;;;6.55;100.00;98889.50;5607793;31;33948;-73
2024/01/04 03:05:51;;;;;;;11.00;4.70;;;;;;;6.60;100.00;98906.59;5607607;31;34676;-72
2024/01/04 03:08:54;;;;;;;10.93;4.80;;;;;;;6.50;100.00;98912.91;5607317;31;34460;-73
2024/01/04 03:11:57;;;;;;;12.27;5.00;;;;;;;6.45;100.00;98907.38;5607576;31;34064;-74
2024/01/04 03:15:00;;;;;;;9.50;4.50;;;;;;;6.39;100.00;98891.47;5607983;31;33993;-74
2024/01/04 03:18:04;;;;;;;9.65;4.30;;;;;;;6.35;100.00;98898.06;5607380;31;34856;-74
2024/01/04 03:21:08;;;;;;;9.88;4.03;;;;;;;6.42;100.00;98881.37;5607557;31;34121;-74
2024/01/04 03:24:12;;;;;;;9.43;4.43;;;;;;;6.77;100.00;98874.66;5607610;31;32496;-73
2024/01/04 03:27:15;;;;;;;14.07;4.12;;;;;;;6.91;100.00;98867.75;5607409;31;35094;-73
2024/01/04 03:30:19;;;;;;;9.13;4.07;;;;;;;6.93;100.00;98868.38;5607708;31;34148;-74
2024/01/04 03:33:23;;;;;;;8.57;3.90;;;;;;;6.94;100.00;98884.00;5607401;31;35138;-73
2024/01/04 03:36:26;;;;;;;11.82;4.25;;;;;;;6.88;100.00;98891.81;5606575;31;34124;-74
2024/01/04 03:39:32;;;;;;;9.20;4.60;;;;;;;6.85;100.00;98877.19;5607553;31;34850;-74
2024/01/04 03:42:36;;;;;;;10.30;4.62;;;;;;;6.83;100.00;98852.81;5609953;31;34131;-74
2024/01/04 03:45:40;;;;;;;12.35;5.07;;;;;;;6.85;100.00;98866.66;5609957;31;34896;-74
2024/01/04 03:48:44;;;;;;;13.10;5.60;;;;;;;6.93;100.00;98869.19;5609850;31;34009;-73
2024/01/04 03:51:47;;;;;;;13.25;5.72;;;;;;;6.95;100.00;98851.38;5609884;31;34134;-73
2024/01/04 03:54:50;;;;;;;13.52;6.10;;;;;;;6.87;100.00;98850.66;5609056;31;35098;-73
2024/01/04 03:57:53;;;;;;;11.90;5.80;;;;;;;6.75;100.00;98845.00;5609634;31;34163;-72
2024/01/04 04:00:56;;;;;;;11.48;5.40;;;;;;;6.64;100.00;98848.06;5609969;31;34011;-72
2024/01/04 04:03:59;;;;;;;12.00;6.30;;;;;;;6.60;100.00;98843.34;5610107;31;34027;-72
2024/01/04 04:07:03;;;;;;;8.90;5.75;;;;;;;6.52;100.00;98855.63;5609531;31;33967;-72
2024/01/04 04:10:08;;;;;;;12.98;6.25;;;;;;;6.49;100.00;98848.06;5609539;31;35793;-72
2024/01/04 04:13:11;;;;;;;11.18;6.05;;;;;;;6.46;100.00;98832.63;5609568;31;33962;-72
2024/01/04 04:16:14;;;;;;;14.48;6.40;;;;;;;6.47;100.00;98841.34;5608809;31;34041;-73
2024/01/04 04:19:17;;;;;;;11.93;6.07;;;;;;;6.41;100.00;98837.59;5609316;31;33983;-72
2024/01/04 04:22:20;;;;;;;11.43;5.90;;;;;;;6.41;100.00;98840.22;5609738;31;33888;-73
2024/01/04 04:25:22;;;;;;;14.35;6.20;;;;;;;6.46;100.00;98837.06;5608729;31;34762;-73
2024/01/04 04:28:26;;;;;;;10.75;5.53;;;;;;;6.61;100.00;98850.25;5609276;31;34048;-72
2024/01/04 04:31:29;;;;;;;12.52;5.62;;;;;;;6.63;100.00;98872.00;5609343;31;34935;-73
2024/01/04 04:34:32;;;;;;;10.98;5.78;;;;;;;6.80;100.00;98871.63;5608423;31;34293;-73
2024/01/04 04:37:35;;;;;;;12.55;5.40;;;;;;;7.04;100.00;98865.28;5608781;31;34227;-73
2024/01/04 04:40:38;;;;;;;12.85;5.75;;;;;;;7.13;100.00;98876.56;5609041;31;34424;-73
2024/01/04 04:43:41;;;;;;;13.75;6.05;;;;;;;7.15;100.00;98883.28;5609231;31;34062;-73
2024/01/04 04:46:45;;;;;;;13.40;6.07;;;;;;;7.11;100.00;98886.47;5609096;31;34002;-73
2024/01/04 04:49:48;;;;;;;11.05;5.90;;;;;;;7.06;100.00;98876.47;5608225;31;33952;-73
2024/01/04 04:52:51;;;;;;;12.98;5.82;;;;;;;7.08;100.00;98878.91;5608068;31;34708;-73
2024/01/04 04:55:54;;;;;;;14.52;5.93;;;;;;;7.05;100.00;98879.28;5608963;31;34095;-73
2024/01/04 04:58:57;;;;;;;13.68;6.03;;;;;;;7.09;100.00;98870.84;5608251;31;34744;-74
2024/01/04 05:02:00;;;;;;;9.93;5.57;;;;;;;7.04;100.00;98862.66;5608943;31;34737;-73
2024/01/04 05:05:03;;;;;;;13.90;5.90;;;;;;;6.96;100.00;98852.19;5609283;31;34702;-73
2024/01/04 05:08:06;;;;;;;17.27;7.43;;;;;;;6.91;100.00;98859.84;5608867;31;34159;-74
2024/01/04 05:11:09;;;;;;;12.63;6.60;;;;;;;6.76;100.00;98859.00;5608898;31;34303;-73
2024/01/04 05:14:12;;;;;;;18.10;7.10;;;;;;;6.68;100.00;98859.88;5609337;31;35062;-73
2024/01/04 05:17:15;;;;;;;12.85;6.75;;;;;;;6.51;100.00;98847.88;5609135;31;34743;-74
2024/01/04 05:20:18;;;;;;;12.07;7.03;;;;;;;6.42;100.00;98847.16;5608863;31;34693;-73
2024/01/04 05:23:22;;;;;;;13.20;7.10;;;;;;;6.38;100.00;98859.03;5608984;31;35075;-73
2024/01/04 05:26:26;;;;;;;12.10;6.85;;;;;;;6.25;100.00;98853.53;5608949;31;34052;-73
2024/01/04 05:29:29;;;;;;;12.60;6.78;;;;;;;6.07;100.00;98860.91;5608994;31;35517;-74
2024/01/04 05:32:32;;;;;;;14.73;6.75;;;;;;;6.16;100.00;98859.88;5608933;31;34150;-73
2024/01/04 05:35:35;;;;;;;14.77;6.95;;;;;;;6.14;100.00;98864.50;5608214;31;34052;-75
2024/01/04 05:38:38;;;;;;;11.70;6.35;;;;;;;6.16;100.00;98859.88;5608771;31;34314;-74
2024/01/04 05:41:41;;;;;;;14.45;6.53;;;;;;;6.12;100.00;98861.22;5608718;31;34291;-73
2024/01/04 05:44:44;;;;;;;14.77;6.90;;;;;;;6.07;100.00;98874.09;5608814;31;34444;-72
2024/01/04 05:47:47;;;;;;;12.50;6.62;;;;;;;5.98;100.00;98875.16;5608641;31;35111;-73
2024/01/04 05:50:50;;;;;;;15.65;7.10;;;;;;;5.90;100.00;98883.09;5608713;31;34381;-74
2024/01/04 05:53:53;;;;;;;12.07;6.03;;;;;;;5.89;100.00;98899.88;5608066;31;34092;-74
2024/01/04 05:56:56;;;;;;;9.50;4.72;;;;;;;5.95;100.00;98907.09;5608736;31;34198;-74
2024/01/04 06:00:00;;;;;;;8.50;4.10;;;;;;;6.45;100.00;98899.47;5607887;31;34686;-73
2024/01/04 06:03:03;;;;;;;12.85;5.40;;;;;;;6.57;100.00;98907.78;5608427;31;34656;-73
2024/01/04 06:06:10;;;;;;;13.27;5.15;;;;;;;6.56;100.00;98911.41;5608952;31;34067;-74
2024/01/04 06:09:13;;;;;;;16.92;6.32;;;;;;;6.46;100.00;98918.72;5608412;31;34918;-74
2024/01/04 06:12:17;;;;;;;14.70;6.22;;;;;;;6.31;100.00;98913.41;5608450;31;34924;-73
2024/01/04 06:15:20;;;;;;;14.13;5.78;;;;;;;6.21;100.00;98914.62;5608555;31;34750;-74
2024/01/04 06:18:23;;;;;;;11.55;5.70;;;;;;;6.22;100.00;98916.28;5608192;31;34743;-73
2024/01/04 06:21:26;;;;;;;13.52;5.82;;;;;;;6.21;100.00;98919.91;5608488;31;34724;-73
2024/01/04 06:24:29;;;;;;;12.25;6.35;;;;;;;6.27;100.00;98912.13;5608206;31;34186;-73
2024/01/04 06:27:32;;;;;;;12.60;6.55;;;;;;;6.28;100.00;98921.66;5608086;31;33967;-73
2024/01/04 06:30:35;;;;;;;12.15;6.07;;;;;;;6.24;100.00;98933.56;5608615;31;34081;-73
2024/01/04 06:33:39;;;;;;;10.40;5.70;;;;;;;6.18;100.00;98933.41;5608131;31;34932;-74
2024/01/04 06:36:42;;;;;;;13.10;6.28;;;;;;;6.18;100.00;98934.25;5608238;31;34809;-74
2024/01/04 06:39:45;;;;;;;15.15;6.30;;;;;;;6.06;100.00;98935.63;5607912;31;34737;-74
2024/01/04 06:42:55;;;;;;;12.75;5.85;;;;;;;5.98;100.00;98933.06;5606906;31;34388;-74
2024/01/04 06:45:58;;;;;;;11.43;5.80;;;;;;;5.90;100.00;98935.75;5607858;31;34354;-74
2024/01/04 06:49:01;;;;;;;11.50;5.55;;;;;;;5.80;100.00;98929.84;5607877;31;34086;-75
2024/01/04 06:52:04;;;;;;;13.65;5.18;;;;;;;5.94;100.00;98932.59;5607292;31;34220;-74
2024/01/04 06:55:08;;;;;;;11.25;4.93;;;;;;;6.17;100.00;98937.03;5607811;31;34190;-75
2024/01/04 06:58:11;;;;;;;11.15;4.60;;;;;;;6.25;100.00;98936.97;5607841;31;35164;-75
2024/01/04 07:01:14;;;;;;;11.32;4.07;;;;;;;6.23;100.00;98939.00;5607718;31;33996;-74
2024/01/04 07:04:18;;;;;;;13.68;4.28;;;;;;;6.53;100.00;98938.91;5607012;31;34017;-74
2024/01/04 07:07:20;;;;;;;13.07;4.20;;;;;;;6.73;100.00;98938.44;5607333;31;34097;-74
2024/01/04 07:10:23;;;;;;;13.05;3.70;;;;;;;6.83;100.00;98931.06;5607655;31;34285;-74
2024/01/04 07:13:26;;;;;;;8.13;2.70;;;;;;;7.01;100.00;98930.75;5607664;31;34236;-75
2024/01/04 07:16:29;;;;;;;7.50;2.70;;;;;;;7.45;100.00;98918.41;5609658;31;33996;-75
2024/01/04 07:19:33;;;;;;;9.23;2.65;;;;;;;7.71;100.00;98924.00;5610073;31;34094;-75
2024/01/04 07:22:36;;;;;;;4.25;2.05;;;;;;;7.93;100.00;98937.25;5610135;31;34007;-74
2024/01/04 07:25:39;;;;;;;4.37;1.55;;;;;;;8.24;100.00;98935.13;5610024;31;34276;-75
2024/01/04 07:28:43;;;;;;;3.15;1.40;;;;;;;8.55;100.00;98932.22;5609756;31;34866;-75
2024/01/04 07:31:47;;;;;;;3.67;1.05;;;;;;;8.84;100.00;98932.06;5609178;31;34078;-75
2024/01/04 07:34:50;;;;;;;3.53;1.10;;;;;;;9.22;100.00;98931.69;5609974;31;34142;-75
2024/01/04 07:38:09;;;;;;;3.40;1.10;;;;;;;9.32;100.00;98921.59;5609979;31;33982;-75
2024/01/04 07:41:12;;;;;;;2.83;1.08;;;;;;;9.42;100.00;98928.16;5609019;31;34958;-74
2024/01/04 07:44:15;;;;;;;4.57;1.02;;;;;;;9.73;100.00;98925.03;5609656;31;35082;-74
2024/01/04 07:47:18;;;;;;;1.77;0.85;;;;;;;9.88;100.00;98923.06;5609806;31;34131;-75
2024/01/04 07:50:21;;;;;;;1.90;0.70;;;;;;;9.92;100.00;98915.53;5608927;31;34207;-75
2024/01/04 07:53:24;;;;;;;2.83;0.70;;;;;;;10.04;100.00;98924.53;5609705;31;34110;-74
2024/01/04 07:56:28;;;;;;;2.22;0.80;;;;;;;10.17;100.00;98927.25;5609739;31;34693;-75
2024/01/04 07:59:31;;;;;;;1.87;0.70;;;;;;;10.16;100.00;98935.41;5609747;31;34050;-75
2024/01/04 08:02:34;;;;;;;1.65;0.70;;;;;;;10.39;100.00;98933.22;5609555;31;34117;-75
2024/01/04 08:05:38;;;;;;;2.35;0.80;;;;;;;10.59;96.50;98928.75;5610023;31;34161;-75
2024/01/04 08:08:41;;;;;;;3.12;0.60;;;;;;;10.68;94.40;98932.84;5609429;31;34696;-74
2024/01/04 08:11:45;;;;;;;1.37;0.50;;;;;;;10.73;94.59;98933.03;5608847;31;34165;-74
2024/01/04 08:14:49;;;;;;;3.22;0.80;;;;;;;10.92;91.02;98919.97;5609452;31;34594;-75
2024/01/04 08:17:52;;;;;;;2.60;0.60;;;;;;;10.97;88.97;98912.22;5609549;31;34149;-74
2024/01/04 08:20:56;;;;;;;6.72;1.27;;;;;;;10.94;89.79;98917.94;5609023;31;33991;-75
2024/01/04 08:24:03;;;;;;;2.90;0.70;;;;;;;11.05;88.46;98915.47;5609431;31;34853;-75
2024/01/04 08:27:05;;;;;;;2.55;0.70;;;;;;;11.37;85.66;98915.62;5608523;31;34277;-75
2024/01/04 08:30:10;;;;;;;1.48;0.60;;;;;;;11.72;81.97;98912.44;5609425;31;33986;-73
2024/01/04 08:33:14;;;;;;;6.70;2.30;;;;;;;11.99;80.26;98912.34;5609488;31;34169;-75
2024/01/04 08:36:17;;;;;;;2.37;0.77;;;;;;;12.00;81.29;98911.31;5609359;31;34143;-75
2024/01/04 08:39:21;;;;;;;0.82;0.50;;;;;;;12.06;80.27;98931.72;5609369;31;34199;-74
2024/01/04 08:42:24;;;;;;;2.10;0.40;;;;;;;12.14;77.87;98911.03;5609153;31;34717;-76
2024/01/04 08:45:26;;;;;;;1.55;0.50;;;;;;;11.97;76.84;98931.12;5609097;31;34251;-74
2024/01/04 08:48:33;;;;;;;2.30;0.50;;;;;;;11.93;77.84;98939.75;5609201;31;34077;-74
2024/01/04 08:51:36;;;;;;;2.83;0.40;;;;;;;11.87;78.14;98941.41;5608656;31;34122;-74
2024/01/04 08:54:41;;;;;;;2.70;0.50;;;;;;;11.71;79.62;98942.66;5609297;31;35010;-73
2024/01/04 08:57:44;;;;;;;3.67;0.60;;;;;;;11.67;81.67;98941.44;5608507;31;33978;-74
2024/01/04 09:00:47;;;;;;;2.35;0.60;;;;;;;11.64;83.79;98933.09;5609208;31;33984;-74
2024/01/04 09:03:55;;;;;;;0.93;0.40;;;;;;;11.66;84.62;98942.50;5608521;31;33992;-73
2024/01/04 09:06:59;;;;;;;2.62;0.70;;;;;;;11.56;83.57;98928.03;5608203;31;33911;-72
2024/01/04 09:10:02;;;;;;;2.78;0.60;;;;;;;11.54;82.47;98904.31;5608743;31;34447;-72
2024/01/04 09:13:06;;;;;;;1.48;0.60;;;;;;;11.71;82.67;98933.91;5608882;31;34109;-73
2024/01/04 09:16:10;;;;;;;2.65;0.80;;;;;;;11.84;78.22;98923.25;5608676;31;34957;-73
2024/01/04 09:19:14;;;;;;;2.35;0.65;;;;;;;11.96;76.96;98929.50;5609138;31;34827;-73
2024/01/04 09:22:17;;;;;;;1.98;0.60;;;;;;;12.05;76.70;98924.78;5608212;31;34105;-74
2024/01/04 09:25:20;;;;;;;1.12;0.52;;;;;;;12.11;74.02;98923.91;5608061;31;34093;-72
2024/01/04 09:28:26;;;;;;;1.58;0.60;;;;;;;12.20;72.94;98915.47;5608334;31;34751;-74
2024/01/04 09:31:30;;;;;;;1.33;0.52;;;;;;;12.33;72.90;98933.22;5608754;31;35001;-73
2024/01/04 09:34:36;;;;;;;2.60;0.60;;;;;;;12.26;71.30;98947.56;5608316;31;34776;-74
2024/01/04 09:37:41;;;;;;;1.45;0.62;;;;;;;12.23;71.33;98954.13;5608080;31;34226;-73
2024/01/04 09:40:44;;;;;;;1.15;0.55;;;;;;;12.20;71.62;98944.72;5608786;31;33972;-73
2024/01/04 09:43:55;;;;;;;3.22;0.50;;;;;;;12.08;74.16;98956.25;5608596;31;34979;-74
2024/01/04 09:47:02;;;;;;;0.85;0.40;;;;;;;12.10;71.74;98957.66;5608713;31;34854;-72
2024/01/04 09:50:10;;;;;;;0.80;0.50;;;;;;;12.10;71.21;98962.97;5607932;31;34199;-73
2024/01/04 09:53:14;;;;;;;2.47;0.70;;;;;;;12.15;70.33;98957.84;5608396;31;33037;-73
2024/01/04 09:56:17;;;;;;;0.43;0.40;;;;;;;12.17;70.90;98957.63;5608912;31;34340;-73
2024/01/04 09:59:21;;;;;;;2.37;0.60;;;;;;;12.22;69.41;98960.47;5608558;31;34112;-73
2024/01/04 10:02:24;;;;;;;3.45;0.57;;;;;;;12.26;72.45;98976.81;5608406;31;34816;-72
2024/01/04 10:05:27;;;;;;;1.55;0.60;;;;;;;12.28;73.10;98983.56;5608560;31;34772;-73
2024/01/04 10:08:36;;;;;;;1.30;0.47;;;;;;;12.28;70.48;98975.56;5608013;31;34707;-73
2024/01/04 10:12:02;;;;;;;1.08;0.43;;;;;;;12.35;68.04;98976.34;5608546;31;34780;-71
2024/01/04 10:15:07;;;;;;;2.03;0.40;;;;;;;12.26;67.58;98988.25;5597050;31;34821;-73
2024/01/04 10:18:12;;;;;;;2.67;0.60;;;;;;;12.25;67.12;98991.94;5606561;31;34594;-73
2024/01/04 10:21:16;;;;;;;4.00;0.52;;;;;;;12.22;67.48;98983.56;5607334;31;34405;-72
2024/01/04 10:24:23;;;;;;;1.95;0.62;;;;;;;12.22;68.47;98996.88;5608281;31;34983;-73
2024/01/04 10:27:30;;;;;;;2.15;0.60;;;;;;;12.30;68.03;98988.63;5607266;31;34071;-73
2024/01/04 10:30:35;;;;;;;2.10;0.60;;;;;;;12.42;69.56;98992.28;5607838;31;34360;-75
2024/01/04 10:33:38;;;;;;;2.33;0.80;;;;;;;12.64;67.06;98989.06;5608074;31;34086;-72
2024/01/04 10:36:45;;;;;;;2.78;0.90;;;;;;;12.80;69.16;99005.53;5610153;31;34267;-72
2024/01/04 10:39:56;;;;;;;1.20;0.60;;;;;;;12.48;71.81;99034.81;5607722;31;33886;-71
2024/01/04 10:43:02;;;;;;;2.90;0.90;;;;;;;12.28;71.30;99019.97;5609384;31;34891;-73
2024/01/04 10:46:08;;;;;;;0.88;0.60;;;;;;;12.18;74.40;99021.22;5608830;31;34143;-72
2024/01/04 10:49:16;;;;;;;0.88;0.55;;;;;;;11.84;78.10;99013.59;5607753;31;34862;-72
2024/01/04 10:52:20;;;;;;;3.17;1.00;;;;;;;12.01;81.33;99008.59;5607195;31;33970;-72
2024/01/04 10:55:28;;;;;;;1.37;0.70;;;;;;;12.16;77.93;99003.84;5607159;31;34866;-72
2024/01/04 10:58:33;;;;;;;1.70;0.73;;;;;;;12.03;76.68;98996.75;5607549;31;35111;-71
2024/01/04 11:01:37;;;;;;;1.95;0.93;;;;;;;12.04;74.60;98990.41;5607788;31;34012;-72
2024/01/04 11:04:49;;;;;;;1.40;0.82;;;;;;;12.10;72.60;98992.22;5581653;31;33836;-73
2024/01/04 11:07:55;;;;;;;2.28;1.00;;;;;;;12.18;72.88;98994.66;5606828;31;34168;-72
2024/01/04 11:11:02;;;;;;;3.40;0.93;;;;;;;12.24;73.46;98984.19;5607608;31;34023;-73
2024/01/04 11:14:06;;;;;;;1.25;0.62;;;;;;;12.32;71.46;98995.41;5606453;31;33999;-71
2024/01/04 11:17:52;;;;;;;2.87;0.90;;;;;;;12.24;70.83;98976.22;5607207;31;35015;-71
2024/01/04 11:21:36;;;;;;;1.62;0.77;;;;;;;12.20;71.47;98978.47;5606961;31;34238;-72
2024/01/04 11:24:47;;;;;;;1.00;0.62;;;;;;;12.58;69.38;98989.13;5607256;31;34131;-72
2024/01/04 11:27:51;;;;;;;2.42;0.80;;;;;;;12.36;70.45;98993.13;5607565;31;34095;-72
2024/01/04 11:30:54;;;;;;;1.95;0.82;;;;;;;12.43;70.17;98992.06;5607555;31;34494;-72
2024/01/04 11:34:03;;;;;;;1.85;0.80;;;;;;;12.54;69.46;98995.87;5607172;31;35571;-72
2024/01/04 11:37:17;;;;;;;1.30;0.70;;;;;;;12.66;68.80;98999.50;5606404;31;34149;-71
2024/01/04 11:40:27;;;;;;;2.55;0.60;;;;;;;12.55;68.61;98976.22;5606511;31;34190;-71
2024/01/04 11:43:38;;;;;;;2.47;0.68;;;;;;;12.67;68.79;98992.31;5606393;31;34059;-71
2024/01/04 11:46:43;;;;;;;1.80;0.70;;;;;;;12.63;69.20;98990.06;5606332;31;34098;-72
2024/01/04 11:49:47;;;;;;;1.80;0.62;;;;;;;12.67;69.19;98993.16;5606785;31;34448;-72
2024/01/04 11:53:06;;;;;;;4.00;0.60;;;;;;;12.62;68.93;98985.00;5607096;31;34185;-72
2024/01/04 11:56:12;;;;;;;4.57;0.75;;;;;;;12.55;69.28;98995.66;5606689;31;35168;-71
2024/01/04 11:59:21;;;;;;;1.12;0.60;;;;;;;12.57;68.70;98985.63;5606822;31;34739;-71
2024/01/04 12:02:25;;;;;;;1.65;0.60;;;;;;;12.45;69.71;98997.97;5608190;31;34687;-71
2024/01/04 12:05:28;;;;;;;1.75;0.62;;;;;;;12.61;70.43;98994.81;5608513;31;34106;-71
2024/01/04 12:08:32;;;;;;;1.10;0.50;;;;;;;12.63;71.08;98983.97;5608758;31;34692;-72
2024/01/04 12:11:36;;;;;;;1.25;0.68;;;;;;;12.62;70.03;98983.16;5609926;31;35224;-72
2024/01/04 12:14:39;;;;;;;0.93;0.60;;;;;;;12.54;70.07;98971.94;5610159;31;34196;-71
2024/01/04 12:17:42;;;;;;;1.40;0.65;;;;;;;12.71;68.98;98978.38;5605930;31;139438;-71
2024/01/04 12:20:45;;;;;;;1.37;0.50;;;;;;;12.54;69.57;98964.75;5609367;31;35052;-72
2024/01/04 12:23:49;;;;;;;1.20;0.50;;;;;;;12.46;68.74;98977.50;5609205;31;34930;-72
2024/01/04 12:26:52;;;;;;;2.65;0.62;;;;;;;12.51;69.72;98986.50;5609323;31;34287;-72
2024/01/04 12:29:56;;;;;;;1.42;0.70;;;;;;;12.51;69.78;98989.16;5609186;31;34113;-72
2024/01/04 12:33:03;;;;;;;2.83;0.75;;;;;;;12.64;68.40;98983.72;5609314;31;34197;-71
2024/01/04 12:36:06;;;;;;;1.70;0.80;;;;;;;12.82;68.92;98988.34;5609386;31;34885;-71
2024/01/04 12:39:13;;;;;;;0.73;0.50;;;;;;;12.89;68.59;98990.94;5609360;31;34852;-73
2024/01/04 12:42:21;;;;;;;1.35;0.50;;;;;;;13.03;67.23;98987.94;5609240;31;34828;-73
2024/01/04 12:45:26;;;;;;;2.22;0.50;;;;;;;13.04;67.11;98996.75;5608513;31;34840;-73
2024/01/04 12:48:29;;;;;;;1.95;0.60;;;;;;;13.17;66.71;99007.31;5609209;31;34744;-71
2024/01/04 12:51:35;;;;;;;7.37;0.70;;;;;;;13.00;69.43;99000.88;5608994;31;34722;-71
2024/01/04 12:54:41;;;;;;;1.45;0.60;;;;;;;13.08;68.45;98996.09;5609170;31;35360;-71
2024/01/04 12:57:44;;;;;;;1.75;0.65;;;;;;;12.77;68.53;99017.44;5609237;31;34012;-71
2024/01/04 13:00:47;;;;;;;1.20;0.52;;;;;;;12.48;70.78;99023.34;5608506;31;34099;-71
2024/01/04 13:03:50;;;;;;;0.73;0.50;;;;;;;12.31;71.71;99020.34;5609252;31;34966;-71
2024/01/04 13:06:53;;;;;;;1.15;0.50;;;;;;;12.23;70.86;99015.28;5609064;31;35168;-71
2024/01/04 13:09:56;;;;;;;1.20;0.50;;;;;;;12.21;72.07;99043.91;5607895;31;34089;-71
2024/01/04 13:13:00;;;;;;;2.05;0.50;;;;;;;12.17;72.49;99054.16;5608219;31;34098;-72
2024/01/04 13:16:05;;;;;;;1.17;0.52;;;;;;;12.21;71.81;99046.56;5608281;31;34020;-71
2024/01/04 13:19:12;;;;;;;2.40;0.50;;;;;;;12.20;72.83;99042.28;5608192;31;34190;-71
2024/01/04 13:22:16;;;;;;;1.62;0.50;;;;;;;12.16;72.84;99052.53;5608397;31;34739;-72
2024/01/04 13:25:27;;;;;;;0.90;0.62;;;;;;;12.10;72.25;99066.66;5609165;31;34839;-71
2024/01/04 13:28:29;;;;;;;1.87;0.60;;;;;;;12.10;72.76;99056.00;5609097;31;34099;-72
2024/01/04 13:31:32;;;;;;;1.80;0.57;;;;;;;11.94;74.13;99064.47;5609012;31;35145;-72
2024/01/04 13:34:36;;;;;;;1.20;0.70;;;;;;;11.84;76.57;99063.25;5608196;31;34916;-71
2024/01/04 13:37:40;;;;;;;3.22;0.60;;;;;;;11.69;78.87;99066.09;5608944;31;34172;-72
2024/01/04 13:40:42;;;;;;;3.05;0.70;;;;;;;11.84;78.11;99082.66;5608727;31;35549;-71
2024/01/04 13:43:46;;;;;;;0.70;0.55;;;;;;;11.72;77.76;99079.81;5609274;31;34643;-71
2024/01/04 13:46:48;;;;;;;2.28;1.00;;;;;;;11.71;80.95;99112.69;5609311;31;34491;-72
2024/01/04 13:49:54;;;;;;;1.67;0.70;;;;;;;11.72;77.23;99116.16;5608756;31;35012;-72
2024/01/04 13:52:57;;;;;;;1.77;0.60;;;;;;;11.81;75.85;99114.16;5607729;31;34031;-70
2024/01/04 13:56:03;;;;;;;0.90;0.50;;;;;;;11.67;77.28;99124.75;5608567;31;34330;-71
2024/01/04 13:59:06;;;;;;;1.10;0.60;;;;;;;11.62;78.58;99132.50;5608121;31;34075;-70
2024/01/04 14:02:09;;;;;;;1.20;0.60;;;;;;;11.73;76.89;99145.22;5608693;31;34205;-71
2024/01/04 14:05:12;;;;;;;1.60;0.73;;;;;;;11.76;76.30;99147.47;5608624;31;34099;-69
2024/01/04 14:08:16;;;;;;;0.93;0.55;;;;;;;11.81;77.89;99140.72;5607610;31;35567;-71
2024/01/04 14:11:19;;;;;;;1.70;0.75;;;;;;;11.77;77.96;99148.28;5607545;31;35039;-73
2024/01/04 14:14:23;;;;;;;1.35;0.70;;;;;;;11.72;78.36;99142.72;5608667;31;34001;-71
2024/01/04 14:17:27;;;;;;;1.98;0.70;;;;;;;11.59;78.53;99153.38;5608679;31;34117;-72
2024/01/04 14:20:30;;;;;;;1.62;0.82;;;;;;;11.59;79.47;99154.19;5608313;31;34728;-71
2024/01/04 14:23:33;;;;;;;1.65;0.70;;;;;;;11.48;80.37;99160.09;5607909;31;34998;-71